sensor_id;sensor_type;location;lat;lon;timestamp;pressure;altitude;pressure_sealevel;temperature;humidity
18533;BME280;9396;51.510;11.934;2023-03-31T00:00:11;99630.13;;;11.57;98.84
18533;BME280;9396;51.510;11.934;2023-03-31T00:02:39;99628.13;;;11.59;98.33
18533;BME280;9396;51.510;11.934;2023-03-31T00:05:07;99633.34;;;11.53;98.50
18533;BME280;9396;51.510;11.934;2023-03-31T00:07:34;99624.16;;;11.55;98.45
18533;BME280;9396;51.510;11.934;2023-03-31T00:10:02;99621.88;;;11.52;98.75
18533;BME280;9396;51.510;11.934;2023-03-31T00:12:30;99616.03;;;11.57;98.31
18533;BME280;9396;51.510;11.934;2023-03-31T00:14:57;99616.81;;;11.57;98.37
18533;BME280;9396;51.510;11.934;2023-03-31T00:17:24;99620.31;;;11.58;98.28
18533;BME280;9396;51.510;11.934;2023-03-31T00:19:50;99615.00;;;11.58;98.47
18533;BME280;9396;51.510;11.934;2023-03-31T00:22:18;99605.19;;;11.58;98.25
18533;BME280;9396;51.510;11.934;2023-03-31T00:24:46;99597.72;;;11.54;97.93
18533;BME280;9396;51.510;11.934;2023-03-31T00:27:13;99605.41;;;11.49;97.76
18533;BME280;9396;51.510;11.934;2023-03-31T00:29:41;99600.00;;;11.42;98.10
18533;BME280;9396;51.510;11.934;2023-03-31T00:32:09;99605.03;;;11.37;98.27
18533;BME280;9396;51.510;11.934;2023-03-31T00:34:36;99598.44;;;11.25;98.10
18533;BME280;9396;51.510;11.934;2023-03-31T00:37:03;99600.44;;;11.23;98.58
18533;BME280;9396;51.510;11.934;2023-03-31T00:39:29;99598.34;;;11.19;99.00
18533;BME280;9396;51.510;11.934;2023-03-31T00:42:01;99592.66;;;11.22;98.48
18533;BME280;9396;51.510;11.934;2023-03-31T00:44:29;99588.69;;;11.18;99.16
18533;BME280;9396;51.510;11.934;2023-03-31T00:47:02;99587.31;;;11.22;98.72
18533;BME280;9396;51.510;11.934;2023-03-31T00:49:33;99584.66;;;11.22;98.17
18533;BME280;9396;51.510;11.934;2023-03-31T00:52:03;99572.19;;;11.22;98.47
18533;BME280;9396;51.510;11.934;2023-03-31T00:54:32;99573.81;;;11.23;98.36
18533;BME280;9396;51.510;11.934;2023-03-31T00:57:00;99574.66;;;11.24;98.61
18533;BME280;9396;51.510;11.934;2023-03-31T00:59:29;99565.69;;;11.25;98.44
18533;BME280;9396;51.510;11.934;2023-03-31T01:01:59;99567.69;;;11.23;98.44
18533;BME280;9396;51.510;11.934;2023-03-31T01:04:31;99569.69;;;11.21;98.36
18533;BME280;9396;51.510;11.934;2023-03-31T01:07:04;99561.53;;;11.22;98.17
18533;BME280;9396;51.510;11.934;2023-03-31T01:09:33;99552.91;;;11.20;97.96
18533;BME280;9396;51.510;11.934;2023-03-31T01:12:01;99496.28;;;10.89;98.05
18533;BME280;9396;51.510;11.934;2023-03-31T01:14:30;99546.81;;;11.12;98.43
18533;BME280;9396;51.510;11.934;2023-03-31T01:16:56;99546.16;;;11.10;98.22
18533;BME280;9396;51.510;11.934;2023-03-31T01:19:31;99548.44;;;11.13;98.79
18533;BME280;9396;51.510;11.934;2023-03-31T01:22:28;99533.78;;;11.17;98.26
18533;BME280;9396;51.510;11.934;2023-03-31T01:28:07;99522.78;;;11.20;98.26
18533;BME280;9396;51.510;11.934;2023-03-31T01:37:11;99514.50;;;11.15;98.59
18533;BME280;9396;51.510;11.934;2023-03-31T01:40:09;99504.41;;;11.10;98.72
18533;BME280;9396;51.510;11.934;2023-03-31T01:42:42;99509.72;;;11.10;99.21
18533;BME280;9396;51.510;11.934;2023-03-31T01:45:18;99504.59;;;11.09;99.06
18533;BME280;9396;51.510;11.934;2023-03-31T01:47:50;99505.41;;;11.09;98.83
18533;BME280;9396;51.510;11.934;2023-03-31T01:50:25;99493.94;;;11.09;98.87
18533;BME280;9396;51.510;11.934;2023-03-31T01:52:58;99498.25;;;11.10;98.74
18533;BME280;9396;51.510;11.934;2023-03-31T01:55:33;99496.94;;;11.06;98.73
18533;BME280;9396;51.510;11.934;2023-03-31T01:58:05;99410.56;;;10.56;98.93
18533;BME280;9396;51.510;11.934;2023-03-31T02:00:38;99487.78;;;11.08;99.22
18533;BME280;9396;51.510;11.934;2023-03-31T02:03:10;99483.00;;;11.04;98.93
18533;BME280;9396;51.510;11.934;2023-03-31T02:05:43;99479.53;;;11.03;99.26
18533;BME280;9396;51.510;11.934;2023-03-31T02:08:14;99473.59;;;10.93;99.10
18533;BME280;9396;51.510;11.934;2023-03-31T02:10:44;99467.94;;;10.96;99.24
18533;BME280;9396;51.510;11.934;2023-03-31T02:13:14;99389.19;;;10.50;98.94
18533;BME280;9396;51.510;11.934;2023-03-31T02:15:46;99463.59;;;10.95;98.91
18533;BME280;9396;51.510;11.934;2023-03-31T02:18:18;99454.50;;;10.90;99.00
18533;BME280;9396;51.510;11.934;2023-03-31T02:20:48;99460.94;;;10.95;98.97
18533;BME280;9396;51.510;11.934;2023-03-31T02:23:19;99465.97;;;10.90;99.04
18533;BME280;9396;51.510;11.934;2023-03-31T02:25:53;99455.34;;;10.90;99.13
18533;BME280;9396;51.510;11.934;2023-03-31T02:28:24;99446.91;;;10.87;99.53
18533;BME280;9396;51.510;11.934;2023-03-31T02:31:04;99452.69;;;10.90;99.54
18533;BME280;9396;51.510;11.934;2023-03-31T02:33:32;99440.69;;;10.94;99.50
18533;BME280;9396;51.510;11.934;2023-03-31T02:35:59;99433.16;;;10.98;99.34
18533;BME280;9396;51.510;11.934;2023-03-31T02:38:26;99438.06;;;10.86;99.93
18533;BME280;9396;51.510;11.934;2023-03-31T02:40:54;99423.41;;;10.90;99.91
18533;BME280;9396;51.510;11.934;2023-03-31T02:43:21;99421.41;;;10.92;99.72
18533;BME280;9396;51.510;11.934;2023-03-31T02:45:49;99424.53;;;10.96;100.00
18533;BME280;9396;51.510;11.934;2023-03-31T02:48:18;99406.81;;;10.88;99.85
18533;BME280;9396;51.510;11.934;2023-03-31T02:54:18;99408.94;;;10.93;99.69
18533;BME280;9396;51.510;11.934;2023-03-31T02:57:03;99409.22;;;10.98;99.80
18533;BME280;9396;51.510;11.934;2023-03-31T02:59:40;99410.53;;;11.02;99.07
18533;BME280;9396;51.510;11.934;2023-03-31T03:02:16;99406.66;;;11.04;99.05
18533;BME280;9396;51.510;11.934;2023-03-31T03:05:00;99396.28;;;11.09;99.38
18533;BME280;9396;51.510;11.934;2023-03-31T03:07:35;99391.41;;;11.13;98.89
18533;BME280;9396;51.510;11.934;2023-03-31T03:10:09;99390.97;;;11.09;97.98
18533;BME280;9396;51.510;11.934;2023-03-31T03:12:48;99387.78;;;11.14;97.90
18533;BME280;9396;51.510;11.934;2023-03-31T03:15:20;99381.59;;;11.13;97.38
18533;BME280;9396;51.510;11.934;2023-03-31T03:17:51;99377.66;;;11.09;97.53
18533;BME280;9396;51.510;11.934;2023-03-31T03:20:19;99372.97;;;10.97;97.77
18533;BME280;9396;51.510;11.934;2023-03-31T03:22:47;99374.44;;;10.99;97.68
18533;BME280;9396;51.510;11.934;2023-03-31T03:25:14;99373.25;;;11.02;97.67
18533;BME280;9396;51.510;11.934;2023-03-31T03:27:43;99364.63;;;11.00;98.20
18533;BME280;9396;51.510;11.934;2023-03-31T03:30:12;99366.28;;;11.01;98.17
18533;BME280;9396;51.510;11.934;2023-03-31T03:32:39;99358.09;;;11.02;98.09
18533;BME280;9396;51.510;11.934;2023-03-31T03:35:07;99368.22;;;11.07;98.17
18533;BME280;9396;51.510;11.934;2023-03-31T03:37:33;99364.53;;;11.08;98.08
18533;BME280;9396;51.510;11.934;2023-03-31T03:40:00;99350.31;;;11.01;98.57
18533;BME280;9396;51.510;11.934;2023-03-31T03:42:28;99351.59;;;11.05;98.68
18533;BME280;9396;51.510;11.934;2023-03-31T03:44:56;99346.75;;;11.08;99.15
18533;BME280;9396;51.510;11.934;2023-03-31T03:47:22;99342.59;;;11.06;99.05
18533;BME280;9396;51.510;11.934;2023-03-31T03:49:49;99339.66;;;11.01;99.42
18533;BME280;9396;51.510;11.934;2023-03-31T03:52:16;99331.16;;;11.05;99.46
18533;BME280;9396;51.510;11.934;2023-03-31T03:54:42;99331.94;;;11.06;99.03
18533;BME280;9396;51.510;11.934;2023-03-31T03:57:09;99328.09;;;11.08;98.05
18533;BME280;9396;51.510;11.934;2023-03-31T03:59:36;99325.91;;;11.12;98.39
18533;BME280;9396;51.510;11.934;2023-03-31T04:02:04;99319.09;;;11.09;98.27
18533;BME280;9396;51.510;11.934;2023-03-31T04:04:30;99315.63;;;11.09;97.74
18533;BME280;9396;51.510;11.934;2023-03-31T04:06:57;99317.66;;;11.07;97.93
18533;BME280;9396;51.510;11.934;2023-03-31T04:09:24;99302.88;;;11.04;97.97
18533;BME280;9396;51.510;11.934;2023-03-31T04:11:50;99308.56;;;11.01;98.01
18533;BME280;9396;51.510;11.934;2023-03-31T04:14:17;99294.16;;;10.96;98.05
18533;BME280;9396;51.510;11.934;2023-03-31T04:16:43;99295.34;;;10.93;98.10
18533;BME280;9396;51.510;11.934;2023-03-31T04:19:13;99291.41;;;10.89;98.34
18533;BME280;9396;51.510;11.934;2023-03-31T04:21:42;99285.78;;;10.84;98.39
18533;BME280;9396;51.510;11.934;2023-03-31T04:24:09;99281.69;;;10.82;98.37
18533;BME280;9396;51.510;11.934;2023-03-31T04:26:41;99280.19;;;10.79;98.27
18533;BME280;9396;51.510;11.934;2023-03-31T04:29:08;99282.41;;;10.75;98.27
18533;BME280;9396;51.510;11.934;2023-03-31T04:31:37;99161.81;;;10.02;98.88
18533;BME280;9396;51.510;11.934;2023-03-31T04:34:07;99281.94;;;10.72;98.86
18533;BME280;9396;51.510;11.934;2023-03-31T04:36:39;99282.78;;;10.72;98.84
18533;BME280;9396;51.510;11.934;2023-03-31T04:39:07;99268.00;;;10.70;98.89
18533;BME280;9396;51.510;11.934;2023-03-31T04:41:35;99232.13;;;10.51;99.36
18533;BME280;9396;51.510;11.934;2023-03-31T04:44:02;99260.66;;;10.72;99.41
18533;BME280;9396;51.510;11.934;2023-03-31T04:46:28;99250.19;;;10.70;99.30
18533;BME280;9396;51.510;11.934;2023-03-31T04:48:55;99248.84;;;10.74;99.64
18533;BME280;9396;51.510;11.934;2023-03-31T04:51:23;99240.84;;;10.74;99.63
18533;BME280;9396;51.510;11.934;2023-03-31T04:53:51;99237.56;;;10.72;100.00
18533;BME280;9396;51.510;11.934;2023-03-31T04:56:18;99226.28;;;10.70;99.93
18533;BME280;9396;51.510;11.934;2023-03-31T04:58:45;99224.91;;;10.74;100.00
18533;BME280;9396;51.510;11.934;2023-03-31T05:01:11;99212.44;;;10.75;100.00
18533;BME280;9396;51.510;11.934;2023-03-31T05:03:42;99201.78;;;10.75;99.60
18533;BME280;9396;51.510;11.934;2023-03-31T05:06:09;99197.47;;;10.74;99.66
18533;BME280;9396;51.510;11.934;2023-03-31T05:08:36;99194.81;;;10.74;99.11
18533;BME280;9396;51.510;11.934;2023-03-31T05:11:04;99193.63;;;10.76;99.37
18533;BME280;9396;51.510;11.934;2023-03-31T05:13:31;99181.31;;;10.75;99.11
18533;BME280;9396;51.510;11.934;2023-03-31T05:15:57;99171.25;;;10.71;98.62
18533;BME280;9396;51.510;11.934;2023-03-31T05:18:24;99157.31;;;10.69;98.87
18533;BME280;9396;51.510;11.934;2023-03-31T05:20:50;99145.19;;;10.66;98.71
18533;BME280;9396;51.510;11.934;2023-03-31T05:23:17;99144.00;;;10.69;98.65
18533;BME280;9396;51.510;11.934;2023-03-31T05:25:44;99133.19;;;10.70;98.83
18533;BME280;9396;51.510;11.934;2023-03-31T05:28:12;99124.56;;;10.68;98.79
18533;BME280;9396;51.510;11.934;2023-03-31T05:30:39;99119.69;;;10.72;98.90
18533;BME280;9396;51.510;11.934;2023-03-31T05:33:06;99118.25;;;10.69;99.37
18533;BME280;9396;51.510;11.934;2023-03-31T05:35:32;99114.56;;;10.70;99.66
18533;BME280;9396;51.510;11.934;2023-03-31T05:37:59;99103.53;;;10.73;99.48
18533;BME280;9396;51.510;11.934;2023-03-31T05:40:25;99110.16;;;10.77;100.00
18533;BME280;9396;51.510;11.934;2023-03-31T05:42:52;99094.44;;;10.82;100.00
18533;BME280;9396;51.510;11.934;2023-03-31T05:45:20;99097.22;;;10.89;100.00
18533;BME280;9396;51.510;11.934;2023-03-31T05:47:47;99093.25;;;10.85;100.00
18533;BME280;9396;51.510;11.934;2023-03-31T05:50:13;99092.19;;;11.01;100.00
18533;BME280;9396;51.510;11.934;2023-03-31T05:52:40;99091.22;;;11.02;100.00
18533;BME280;9396;51.510;11.934;2023-03-31T05:55:08;99088.59;;;11.08;100.00
18533;BME280;9396;51.510;11.934;2023-03-31T05:57:34;99085.69;;;11.24;100.00
18533;BME280;9396;51.510;11.934;2023-03-31T06:00:01;99047.94;;;11.14;100.00
18533;BME280;9396;51.510;11.934;2023-03-31T06:02:31;99094.56;;;11.52;99.84
18533;BME280;9396;51.510;11.934;2023-03-31T06:04:58;99099.75;;;11.60;98.96
18533;BME280;9396;51.510;11.934;2023-03-31T06:07:25;99092.97;;;11.58;99.20
18533;BME280;9396;51.510;11.934;2023-03-31T06:09:51;99100.31;;;11.56;99.22
18533;BME280;9396;51.510;11.934;2023-03-31T06:12:18;99104.00;;;11.55;98.88
18533;BME280;9396;51.510;11.934;2023-03-31T06:14:44;99102.50;;;11.46;99.12
18533;BME280;9396;51.510;11.934;2023-03-31T06:17:11;99101.84;;;11.44;99.27
18533;BME280;9396;51.510;11.934;2023-03-31T06:19:39;99109.84;;;11.44;99.64
18533;BME280;9396;51.510;11.934;2023-03-31T06:22:06;99090.81;;;11.47;99.70
18533;BME280;9396;51.510;11.934;2023-03-31T06:24:32;99092.53;;;11.33;100.00
18533;BME280;9396;51.510;11.934;2023-03-31T06:26:59;99085.38;;;11.34;100.00
18533;BME280;9396;51.510;11.934;2023-03-31T06:29:26;99086.28;;;11.41;99.92
18533;BME280;9396;51.510;11.934;2023-03-31T06:31:53;99082.41;;;11.22;100.00
18533;BME280;9396;51.510;11.934;2023-03-31T06:34:20;99077.50;;;11.26;100.00
18533;BME280;9396;51.510;11.934;2023-03-31T06:36:48;99088.06;;;11.34;100.00
18533;BME280;9396;51.510;11.934;2023-03-31T06:39:15;99075.50;;;11.28;100.00
18533;BME280;9396;51.510;11.934;2023-03-31T06:41:41;99072.88;;;11.34;100.00
18533;BME280;9396;51.510;11.934;2023-03-31T06:44:08;99074.03;;;11.25;100.00
18533;BME280;9396;51.510;11.934;2023-03-31T06:46:35;99079.72;;;11.22;100.00
18533;BME280;9396;51.510;11.934;2023-03-31T06:49:02;99071.69;;;11.16;100.00
18533;BME280;9396;51.510;11.934;2023-03-31T06:51:28;99075.00;;;11.18;100.00
18533;BME280;9396;51.510;11.934;2023-03-31T06:53:56;99077.13;;;11.29;100.00
18533;BME280;9396;51.510;11.934;2023-03-31T06:56:23;99075.59;;;11.20;100.00
18533;BME280;9396;51.510;11.934;2023-03-31T06:58:51;99066.03;;;11.25;100.00
18533;BME280;9396;51.510;11.934;2023-03-31T07:01:18;99056.97;;;11.20;100.00
18533;BME280;9396;51.510;11.934;2023-03-31T07:03:44;99041.31;;;11.31;100.00
18533;BME280;9396;51.510;11.934;2023-03-31T07:06:11;99034.59;;;11.35;100.00
18533;BME280;9396;51.510;11.934;2023-03-31T07:08:37;99034.44;;;11.43;100.00
18533;BME280;9396;51.510;11.934;2023-03-31T07:11:06;99022.22;;;11.49;100.00
18533;BME280;9396;51.510;11.934;2023-03-31T07:13:32;99022.88;;;11.57;100.00
18533;BME280;9396;51.510;11.934;2023-03-31T07:15:59;99019.66;;;11.62;100.00
18533;BME280;9396;51.510;11.934;2023-03-31T07:18:26;99029.81;;;11.73;100.00
18533;BME280;9396;51.510;11.934;2023-03-31T07:20:57;99030.47;;;11.81;100.00
18533;BME280;9396;51.510;11.934;2023-03-31T07:23:24;99043.19;;;11.86;100.00
18533;BME280;9396;51.510;11.934;2023-03-31T07:25:50;99038.31;;;11.90;100.00
18533;BME280;9396;51.510;11.934;2023-03-31T07:28:18;99042.84;;;11.96;100.00
18533;BME280;9396;51.510;11.934;2023-03-31T07:30:45;99044.13;;;12.00;100.00
18533;BME280;9396;51.510;11.934;2023-03-31T07:33:11;99044.34;;;12.05;100.00
18533;BME280;9396;51.510;11.934;2023-03-31T07:35:39;99020.69;;;11.89;100.00
18533;BME280;9396;51.510;11.934;2023-03-31T07:38:06;99044.56;;;12.10;100.00
18533;BME280;9396;51.510;11.934;2023-03-31T07:40:33;99045.63;;;12.15;100.00
18533;BME280;9396;51.510;11.934;2023-03-31T07:43:00;99045.16;;;12.05;100.00
18533;BME280;9396;51.510;11.934;2023-03-31T07:45:29;99041.28;;;12.08;100.00
18533;BME280;9396;51.510;11.934;2023-03-31T07:47:55;99036.19;;;12.13;100.00
18533;BME280;9396;51.510;11.934;2023-03-31T07:50:22;99032.31;;;12.15;100.00
18533;BME280;9396;51.510;11.934;2023-03-31T07:52:49;99025.50;;;12.13;100.00
18533;BME280;9396;51.510;11.934;2023-03-31T07:55:16;99018.56;;;12.18;100.00
18533;BME280;9396;51.510;11.934;2023-03-31T07:57:44;99021.31;;;12.31;100.00
18533;BME280;9396;51.510;11.934;2023-03-31T08:00:13;99015.78;;;12.39;100.00
18533;BME280;9396;51.510;11.934;2023-03-31T08:02:41;99013.53;;;12.36;100.00
18533;BME280;9396;51.510;11.934;2023-03-31T08:05:09;99011.94;;;12.48;100.00
18533;BME280;9396;51.510;11.934;2023-03-31T08:07:38;99011.78;;;12.56;99.91
18533;BME280;9396;51.510;11.934;2023-03-31T08:10:08;99005.81;;;12.54;97.68
18533;BME280;9396;51.510;11.934;2023-03-31T08:12:36;99004.19;;;12.60;98.50
18533;BME280;9396;51.510;11.934;2023-03-31T08:15:03;99007.66;;;12.54;98.42
18533;BME280;9396;51.510;11.934;2023-03-31T08:17:30;98996.38;;;12.58;98.84
18533;BME280;9396;51.510;11.934;2023-03-31T08:19:58;98994.31;;;12.60;99.39
18533;BME280;9396;51.510;11.934;2023-03-31T08:22:25;98999.28;;;12.63;99.33
18533;BME280;9396;51.510;11.934;2023-03-31T08:24:51;98988.56;;;12.57;99.23
18533;BME280;9396;51.510;11.934;2023-03-31T08:27:18;98998.22;;;12.58;99.72
18533;BME280;9396;51.510;11.934;2023-03-31T08:29:45;98981.19;;;12.59;100.00
18533;BME280;9396;51.510;11.934;2023-03-31T08:32:12;98982.38;;;12.50;100.00
18533;BME280;9396;51.510;11.934;2023-03-31T08:34:39;98976.25;;;12.49;100.00
18533;BME280;9396;51.510;11.934;2023-03-31T08:37:08;98967.22;;;12.50;99.47
18533;BME280;9396;51.510;11.934;2023-03-31T08:39:35;98964.34;;;12.52;100.00
18533;BME280;9396;51.510;11.934;2023-03-31T08:42:04;98960.66;;;12.53;100.00
18533;BME280;9396;51.510;11.934;2023-03-31T08:44:34;98965.16;;;12.52;100.00
18533;BME280;9396;51.510;11.934;2023-03-31T08:47:04;98946.50;;;12.46;100.00
18533;BME280;9396;51.510;11.934;2023-03-31T08:49:38;98949.16;;;12.52;100.00
18533;BME280;9396;51.510;11.934;2023-03-31T08:52:11;98942.16;;;12.45;100.00
18533;BME280;9396;51.510;11.934;2023-03-31T08:54:42;98940.13;;;12.47;100.00
18533;BME280;9396;51.510;11.934;2023-03-31T08:57:14;98929.44;;;12.40;100.00
18533;BME280;9396;51.510;11.934;2023-03-31T08:59:43;98929.88;;;12.50;100.00
18533;BME280;9396;51.510;11.934;2023-03-31T09:02:18;98924.13;;;12.53;100.00
18533;BME280;9396;51.510;11.934;2023-03-31T09:05:08;98916.91;;;12.41;100.00
18533;BME280;9396;51.510;11.934;2023-03-31T09:07:51;98915.44;;;12.25;100.00
18533;BME280;9396;51.510;11.934;2023-03-31T09:10:42;98916.50;;;12.37;100.00
18533;BME280;9396;51.510;11.934;2023-03-31T09:13:39;98914.91;;;12.49;100.00
18533;BME280;9396;51.510;11.934;2023-03-31T09:16:13;98844.09;;;12.21;100.00
18533;BME280;9396;51.510;11.934;2023-03-31T09:18:40;98900.31;;;12.52;100.00
18533;BME280;9396;51.510;11.934;2023-03-31T09:21:16;98896.84;;;12.51;100.00
18533;BME280;9396;51.510;11.934;2023-03-31T09:23:48;98891.72;;;12.63;100.00
18533;BME280;9396;51.510;11.934;2023-03-31T09:26:23;98883.34;;;12.72;100.00
18533;BME280;9396;51.510;11.934;2023-03-31T09:28:51;98878.00;;;12.79;100.00
18533;BME280;9396;51.510;11.934;2023-03-31T09:31:21;98886.81;;;12.60;100.00
18533;BME280;9396;51.510;11.934;2023-03-31T09:33:50;98881.06;;;12.69;100.00
18533;BME280;9396;51.510;11.934;2023-03-31T09:36:19;98880.03;;;12.57;100.00
18533;BME280;9396;51.510;11.934;2023-03-31T09:38:49;98876.75;;;12.49;100.00
18533;BME280;9396;51.510;11.934;2023-03-31T09:41:16;98871.59;;;12.54;100.00
18533;BME280;9396;51.510;11.934;2023-03-31T09:43:45;98868.09;;;12.34;100.00
18533;BME280;9396;51.510;11.934;2023-03-31T09:46:16;98867.47;;;12.32;100.00
18533;BME280;9396;51.510;11.934;2023-03-31T09:48:51;98866.44;;;12.26;100.00
18533;BME280;9396;51.510;11.934;2023-03-31T09:51:23;98850.47;;;12.26;100.00
18533;BME280;9396;51.510;11.934;2023-03-31T09:53:56;98853.31;;;12.18;100.00
18533;BME280;9396;51.510;11.934;2023-03-31T09:56:34;98847.75;;;12.13;100.00
18533;BME280;9396;51.510;11.934;2023-03-31T09:59:13;98854.09;;;12.06;100.00
18533;BME280;9396;51.510;11.934;2023-03-31T10:01:41;98849.38;;;12.14;100.00
18533;BME280;9396;51.510;11.934;2023-03-31T10:04:17;98748.44;;;11.65;100.00
18533;BME280;9396;51.510;11.934;2023-03-31T10:06:46;98851.44;;;12.12;100.00
18533;BME280;9396;51.510;11.934;2023-03-31T10:09:15;98836.69;;;12.10;100.00
18533;BME280;9396;51.510;11.934;2023-03-31T10:11:52;98730.34;;;11.48;100.00
18533;BME280;9396;51.510;11.934;2023-03-31T10:14:24;98840.38;;;12.22;100.00
18533;BME280;9396;51.510;11.934;2023-03-31T10:16:53;98833.44;;;12.27;100.00
18533;BME280;9396;51.510;11.934;2023-03-31T10:19:22;98835.88;;;12.16;100.00
18533;BME280;9396;51.510;11.934;2023-03-31T10:21:55;98834.19;;;11.95;100.00
18533;BME280;9396;51.510;11.934;2023-03-31T10:24:24;98826.19;;;12.02;100.00
18533;BME280;9396;51.510;11.934;2023-03-31T10:26:53;98825.19;;;12.09;100.00
18533;BME280;9396;51.510;11.934;2023-03-31T10:29:23;98825.44;;;12.21;100.00
18533;BME280;9396;51.510;11.934;2023-03-31T10:31:54;98816.41;;;12.15;100.00
18533;BME280;9396;51.510;11.934;2023-03-31T10:34:21;98808.41;;;12.22;100.00
18533;BME280;9396;51.510;11.934;2023-03-31T10:36:50;98814.13;;;12.25;100.00
18533;BME280;9396;51.510;11.934;2023-03-31T10:39:18;98807.97;;;12.25;100.00
18533;BME280;9396;51.510;11.934;2023-03-31T10:41:50;98790.56;;;12.22;100.00
18533;BME280;9396;51.510;11.934;2023-03-31T10:44:31;98757.09;;;11.94;100.00
18533;BME280;9396;51.510;11.934;2023-03-31T10:47:04;98797.72;;;12.22;100.00
18533;BME280;9396;51.510;11.934;2023-03-31T10:49:36;98796.09;;;12.21;100.00
18533;BME280;9396;51.510;11.934;2023-03-31T10:52:14;98790.13;;;11.99;100.00
18533;BME280;9396;51.510;11.934;2023-03-31T10:54:46;98797.28;;;12.05;100.00
18533;BME280;9396;51.510;11.934;2023-03-31T10:57:14;98792.38;;;12.02;100.00
18533;BME280;9396;51.510;11.934;2023-03-31T10:59:59;98788.25;;;11.93;100.00
18533;BME280;9396;51.510;11.934;2023-03-31T11:03:03;98795.41;;;11.93;100.00
18533;BME280;9396;51.510;11.934;2023-03-31T11:05:36;98790.69;;;11.81;100.00
18533;BME280;9396;51.510;11.934;2023-03-31T11:08:30;98790.06;;;11.73;100.00
18533;BME280;9396;51.510;11.934;2023-03-31T11:11:13;98787.22;;;11.81;100.00
18533;BME280;9396;51.510;11.934;2023-03-31T11:13:53;98746.81;;;11.71;100.00
18533;BME280;9396;51.510;11.934;2023-03-31T11:16:29;98778.59;;;11.85;100.00
18533;BME280;9396;51.510;11.934;2023-03-31T11:19:18;98776.34;;;11.89;100.00
18533;BME280;9396;51.510;11.934;2023-03-31T11:21:56;98775.13;;;11.98;100.00
18533;BME280;9396;51.510;11.934;2023-03-31T11:24:36;98765.50;;;11.97;100.00
18533;BME280;9396;51.510;11.934;2023-03-31T11:27:21;98767.94;;;11.85;100.00
18533;BME280;9396;51.510;11.934;2023-03-31T11:29:56;98761.34;;;11.75;100.00
18533;BME280;9396;51.510;11.934;2023-03-31T11:32:35;98756.03;;;11.75;100.00
18533;BME280;9396;51.510;11.934;2023-03-31T11:35:17;98750.53;;;11.83;100.00
18533;BME280;9396;51.510;11.934;2023-03-31T11:37:58;98733.13;;;11.87;100.00
18533;BME280;9396;51.510;11.934;2023-03-31T11:40:46;98738.25;;;11.89;100.00
18533;BME280;9396;51.510;11.934;2023-03-31T11:43:22;98726.75;;;11.95;100.00
18533;BME280;9396;51.510;11.934;2023-03-31T11:45:54;98730.88;;;11.97;100.00
18533;BME280;9396;51.510;11.934;2023-03-31T11:48:32;98725.31;;;12.05;100.00
18533;BME280;9396;51.510;11.934;2023-03-31T11:51:02;98725.75;;;12.09;100.00
18533;BME280;9396;51.510;11.934;2023-03-31T11:53:31;98720.03;;;12.12;100.00
18533;BME280;9396;51.510;11.934;2023-03-31T11:56:01;98718.38;;;12.04;100.00
18533;BME280;9396;51.510;11.934;2023-03-31T11:58:34;98721.44;;;11.95;100.00
18533;BME280;9396;51.510;11.934;2023-03-31T12:01:07;98730.06;;;12.03;100.00
18533;BME280;9396;51.510;11.934;2023-03-31T12:03:42;98720.81;;;12.06;100.00
18533;BME280;9396;51.510;11.934;2023-03-31T12:06:12;98729.25;;;12.03;100.00
18533;BME280;9396;51.510;11.934;2023-03-31T12:08:49;98730.06;;;12.03;100.00
18533;BME280;9396;51.510;11.934;2023-03-31T12:11:21;98723.50;;;11.99;100.00
18533;BME280;9396;51.510;11.934;2023-03-31T12:13:57;98722.66;;;12.05;100.00
18533;BME280;9396;51.510;11.934;2023-03-31T12:16:35;98727.16;;;11.98;100.00
18533;BME280;9396;51.510;11.934;2023-03-31T12:19:06;98726.59;;;11.96;100.00
18533;BME280;9396;51.510;11.934;2023-03-31T12:21:38;98720.41;;;12.09;100.00
18533;BME280;9396;51.510;11.934;2023-03-31T12:24:09;98712.44;;;12.15;100.00
18533;BME280;9396;51.510;11.934;2023-03-31T12:26:42;98711.81;;;12.20;100.00
18533;BME280;9396;51.510;11.934;2023-03-31T12:29:21;98698.50;;;12.13;100.00
18533;BME280;9396;51.510;11.934;2023-03-31T12:31:52;98574.88;;;11.49;100.00
18533;BME280;9396;51.510;11.934;2023-03-31T12:34:20;98685.75;;;12.28;100.00
18533;BME280;9396;51.510;11.934;2023-03-31T12:36:59;98679.03;;;12.19;100.00
18533;BME280;9396;51.510;11.934;2023-03-31T12:39:38;98677.16;;;12.33;100.00
18533;BME280;9396;51.510;11.934;2023-03-31T12:42:25;98679.19;;;12.44;100.00
18533;BME280;9396;51.510;11.934;2023-03-31T12:45:01;98679.38;;;12.49;100.00
18533;BME280;9396;51.510;11.934;2023-03-31T12:47:40;98673.44;;;12.47;100.00
18533;BME280;9396;51.510;11.934;2023-03-31T12:50:24;98668.94;;;12.47;100.00
18533;BME280;9396;51.510;11.934;2023-03-31T12:52:59;98664.19;;;12.56;100.00
18533;BME280;9396;51.510;11.934;2023-03-31T12:55:35;98665.59;;;12.65;100.00
18533;BME280;9396;51.510;11.934;2023-03-31T12:58:37;98660.69;;;12.62;100.00
18533;BME280;9396;51.510;11.934;2023-03-31T13:01:06;98652.00;;;12.79;100.00
18533;BME280;9396;51.510;11.934;2023-03-31T13:03:43;98652.78;;;12.93;100.00
18533;BME280;9396;51.510;11.934;2023-03-31T13:06:44;98540.53;;;12.37;100.00
18533;BME280;9396;51.510;11.934;2023-03-31T13:08:58;98646.53;;;13.19;100.00
18533;BME280;9396;51.510;11.934;2023-03-31T13:11:39;98637.75;;;13.12;100.00
18533;BME280;9396;51.510;11.934;2023-03-31T13:14:13;98625.63;;;13.09;100.00
18533;BME280;9396;51.510;11.934;2023-03-31T13:16:42;98630.97;;;12.96;100.00
18533;BME280;9396;51.510;11.934;2023-03-31T13:19:11;98640.19;;;13.07;100.00
18533;BME280;9396;51.510;11.934;2023-03-31T13:21:52;98635.31;;;12.97;100.00
18533;BME280;9396;51.510;11.934;2023-03-31T13:24:20;98639.22;;;12.94;100.00
18533;BME280;9396;51.510;11.934;2023-03-31T13:26:47;98634.31;;;12.91;100.00